Sorell, Australia
Current Conditions -  °F | °C
As of 3:30 AM on Tuesday 27 Jan 2015 (Local Time) from YMHB Reporting Station
Broken Clouds Broken Clouds  
Wind Chill: 57°   Ceiling: 4700
Heat Index: 57°   Visibility: 6mi
Dew Point: 48°   Wind: 0mph
Humidity: 72%   Direction: NA
Pressure: 30"   Gusts: NA
Location:  42.78°S, 147.56°E
Report Text: YMHB 261630Z 00000KT 9999 FEW018 SCT041 BKN047 14/09 Q1016
Loading
Personal Weather Stations






























Interactive Weather Map New forecast layout! Learn more

10-Day Weather Forecast

Advertisements
Track Severe Weather on mobile